Map

Track Data

SID SEASON NUMBER BASIN SUBBASIN NAME ISO_TIME NATURE LAT LON WMO_WIND WMO_PRES WMO_AGENCY TRACK_TYPE DIST2LAND LANDFALL IFLAG USA_AGENCY USA_ATCF_ID USA_LAT USA_LON USA_RECORD USA_STATUS USA_WIND USA_PRES USA_SSHS USA_R34_NE USA_R34_SE USA_R34_SW USA_R34_NW USA_R50_NE USA_R50_SE USA_R50_SW USA_R50_NW USA_R64_NE USA_R64_SE USA_R64_SW USA_R64_NW USA_POCI USA_ROCI USA_RMW USA_EYE TOKYO_LAT TOKYO_LON TOKYO_GRADE TOKYO_WIND TOKYO_PRES TOKYO_R50_DIR TOKYO_R50_LONG TOKYO_R50_SHORT TOKYO_R30_DIR TOKYO_R30_LONG TOKYO_R30_SHORT TOKYO_LAND CMA_LAT CMA_LON CMA_CAT CMA_WIND CMA_PRES HKO_LAT HKO_LON HKO_CAT HKO_WIND HKO_PRES NEWDELHI_LAT NEWDELHI_LON NEWDELHI_GRADE NEWDELHI_WIND NEWDELHI_PRES NEWDELHI_CI NEWDELHI_DP NEWDELHI_POCI REUNION_LAT REUNION_LON REUNION_TYPE REUNION_WIND REUNION_PRES REUNION_TNUM REUNION_CI REUNION_RMW REUNION_R34_NE REUNION_R34_SE REUNION_R34_SW REUNION_R34_NW REUNION_R50_NE REUNION_R50_SE REUNION_R50_SW REUNION_R50_NW REUNION_R64_NE REUNION_R64_SE REUNION_R64_SW REUNION_R64_NW BOM_LAT BOM_LON BOM_TYPE BOM_WIND BOM_PRES BOM_TNUM BOM_CI BOM_RMW BOM_R34_NE BOM_R34_SE BOM_R34_SW BOM_R34_NW BOM_R50_NE BOM_R50_SE BOM_R50_SW BOM_R50_NW BOM_R64_NE BOM_R64_SE BOM_R64_SW BOM_R64_NW BOM_ROCI BOM_POCI BOM_EYE BOM_POS_METHOD BOM_PRES_METHOD NADI_LAT NADI_LON NADI_CAT NADI_WIND NADI_PRES WELLINGTON_LAT WELLINGTON_LON WELLINGTON_WIND WELLINGTON_PRES DS824_LAT DS824_LON DS824_STAGE DS824_WIND DS824_PRES TD9636_LAT TD9636_LON TD9636_STAGE TD9636_WIND TD9636_PRES TD9635_LAT TD9635_LON TD9635_WIND TD9635_PRES TD9635_ROCI NEUMANN_LAT NEUMANN_LON NEUMANN_CLASS NEUMANN_WIND NEUMANN_PRES MLC_LAT MLC_LON MLC_CLASS MLC_WIND MLC_PRES USA_GUST BOM_GUST BOM_GUST_PER REUNION_GUST REUNION_GUST_PER USA_SEAHGT USA_SEARAD_NE USA_SEARAD_SE USA_SEARAD_SW USA_SEARAD_NW STORM_SPEED STORM_DIR
1961254N11329 1961 91 NA NA ESTHER 1961-09-10 12:00:00 TS 11.2000 -31.0000 30 hurdat_atl main 1514 1514 O_____________ hurdat_atl AL051961 11.2000 -31.0000 TD 30 -1 16 288
1961254N11329 1961 91 NA NA ESTHER 1961-09-10 15:00:00 TS 11.4379 -31.7597 main 1592 1590 P_____________ AL051961 11.4379 -31.7597 TD 32 -1 16 289
1961254N11329 1961 91 NA NA ESTHER 1961-09-10 18:00:00 TS 11.7000 -32.5000 35 hurdat_atl main 1658 1658 O_____________ hurdat_atl AL051961 11.7000 -32.5000 TS 35 0 15 292
1961254N11329 1961 91 NA NA ESTHER 1961-09-10 21:00:00 TS 12.0123 -33.2078 main 1725 1725 P_____________ AL051961 12.0123 -33.2078 TS 37 0 15 297
1961254N11329 1961 91 NA NA ESTHER 1961-09-11 00:00:00 TS 12.4000 -33.9000 40 hurdat_atl main 1791 1791 O_____________ hurdat_atl AL051961 12.4000 -33.9000 TS 40 0 16 302
1961254N11329 1961 91 NA NA ESTHER 1961-09-11 03:00:00 TS 12.8773 -34.6001 main 1858 1857 P_____________ AL051961 12.8773 -34.6001 TS 42 0 17 306
1961254N11329 1961 91 NA NA ESTHER 1961-09-11 06:00:00 TS 13.4000 -35.3000 45 hurdat_atl main 1892 1892 O_____________ hurdat_atl AL051961 13.4000 -35.3000 TS 45 0 17 307
1961254N11329 1961 91 NA NA ESTHER 1961-09-11 09:00:00 TS 13.9148 -36.0001 main 1928 1928 P_____________ AL051961 13.9148 -36.0001 TS 47 0 17 306
1961254N11329 1961 91 NA NA ESTHER 1961-09-11 12:00:00 TS 14.4000 -36.7000 50 hurdat_atl main 1960 1924 O_____________ hurdat_atl AL051961 14.4000 -36.7000 TS 50 0 16 303
1961254N11329 1961 91 NA NA ESTHER 1961-09-11 15:00:00 TS 14.8148 -37.4078 main 1924 1891 P_____________ AL051961 14.8148 -37.4078 TS 52 0 16 301
1961254N11329 1961 91 NA NA ESTHER 1961-09-11 18:00:00 TS 15.2000 -38.1000 55 hurdat_atl main 1891 1871 O_____________ hurdat_atl AL051961 15.2000 -38.1000 TS 55 0 15 301
1961254N11329 1961 91 NA NA ESTHER 1961-09-11 21:00:00 TS 15.5997 -38.7578 main 1863 1846 P_____________ AL051961 15.5997 -38.7578 TS 57 0 15 303
1961254N11329 1961 91 NA NA ESTHER 1961-09-12 00:00:00 TS 16.0000 -39.4000 60 hurdat_atl main 1846 1831 O_____________ hurdat_atl AL051961 16.0000 -39.4000 TS 60 0 15 303
1961254N11329 1961 91 NA NA ESTHER 1961-09-12 03:00:00 TS 16.3998 -40.0503 main 1825 1814 P_____________ AL051961 16.3998 -40.0503 TS 65 1 15 303
1961254N11329 1961 91 NA NA ESTHER 1961-09-12 06:00:00 TS 16.8000 -40.7000 70 hurdat_atl main 1816 1801 O_____________ hurdat_atl AL051961 16.8000 -40.7000 HU 70 1 15 302
1961254N11329 1961 91 NA NA ESTHER 1961-09-12 09:00:00 TS 17.1999 -41.3652 main 1803 1795 P_____________ AL051961 17.1999 -41.3652 HU 75 1 15 303
1961254N11329 1961 91 NA NA ESTHER 1961-09-12 12:00:00 TS 17.6000 -42.0000 80 hurdat_atl main 1801 1795 O_____________ hurdat_atl AL051961 17.6000 -42.0000 HU 80 1 14 305
1961254N11329 1961 91 NA NA ESTHER 1961-09-12 15:00:00 TS 18.0147 -42.5652 main 1799 1797 P_____________ AL051961 18.0147 -42.5652 HU 85 2 13 307
1961254N11329 1961 91 NA NA ESTHER 1961-09-12 18:00:00 TS 18.4000 -43.1000 90 967 hurdat_atl main 1802 1796 O_____________ hurdat_atl AL051961 18.4000 -43.1000 HU 90 967 2 13 305
1961254N11329 1961 91 NA NA ESTHER 1961-09-12 21:00:00 TS 18.7298 -43.6502 main 1794 1789 P_____________ AL051961 18.7298 -43.6502 HU 90 967 2 12 300
1961254N11329 1961 91 NA NA ESTHER 1961-09-13 00:00:00 TS 19.0000 -44.2000 90 hurdat_atl main 1793 1786 I_____________ hurdat_atl AL051961 19.0000 -44.2000 HU 90 968 2 12 296
1961254N11329 1961 91 NA NA ESTHER 1961-09-13 03:00:00 TS 19.2298 -44.7501 main 1781 1775 P_____________ AL051961 19.2298 -44.7501 HU 90 968 2 11 291
1961254N11329 1961 91 NA NA ESTHER 1961-09-13 06:00:00 TS 19.4000 -45.3000 90 969 hurdat_atl main 1775 1761 O_____________ hurdat_atl AL051961 19.4000 -45.3000 HU 90 969 2 11 285
1961254N11329 1961 91 NA NA ESTHER 1961-09-13 09:00:00 TS 19.5149 -45.8577 main 1756 1744 P_____________ AL051961 19.5149 -45.8577 HU 90 2 11 281
1961254N11329 1961 91 NA NA ESTHER 1961-09-13 12:00:00 TS 19.6000 -46.4000 90 hurdat_atl main 1744 1732 O_____________ hurdat_atl AL051961 19.6000 -46.4000 HU 90 2 10 281
1961254N11329 1961 91 NA NA ESTHER 1961-09-13 15:00:00 TS 19.6998 -46.9076 main 1734 1720 P_____________ AL051961 19.6998 -46.9076 HU 90 2 10 282
1961254N11329 1961 91 NA NA ESTHER 1961-09-13 18:00:00 TS 19.8000 -47.4000 90 hurdat_atl main 1721 1709 O_____________ hurdat_atl AL051961 19.8000 -47.4000 HU 90 2 10 282
1961254N11329 1961 91 NA NA ESTHER 1961-09-13 21:00:00 TS 19.8999 -47.9001 main 1709 1696 P_____________ AL051961 19.8999 -47.9001 HU 90 2 10 282
1961254N11329 1961 91 NA NA ESTHER 1961-09-14 00:00:00 TS 20.0000 -48.4000 90 hurdat_atl main 1698 1669 O_____________ hurdat_atl AL051961 20.0000 -48.4000 HU 90 2 10 282
1961254N11329 1961 91 NA NA ESTHER 1961-09-14 03:00:00 TS 20.1074 -48.9000 main 1669 1634 P_____________ AL051961 20.1074 -48.9000 HU 90 2 10 282
1961254N11329 1961 91 NA NA ESTHER 1961-09-14 06:00:00 TS 20.2000 -49.4000 90 962 hurdat_atl main 1634 1594 O_____________ hurdat_atl AL051961 20.2000 -49.4000 HU 90 962 2 10 279
1961254N11329 1961 91 NA NA ESTHER 1961-09-14 09:00:00 TS 20.2499 -49.9077 main 1594 1562 P_____________ AL051961 20.2499 -49.9077 HU 90 962 2 9 276
1961254N11329 1961 91 NA NA ESTHER 1961-09-14 12:00:00 TS 20.3000 -50.4000 90 hurdat_atl main 1562 1539 I_____________ hurdat_atl AL051961 20.3000 -50.4000 HU 90 963 2 9 279
1961254N11329 1961 91 NA NA ESTHER 1961-09-14 15:00:00 TS 20.3848 -50.8501 main 1531 1509 P_____________ AL051961 20.3848 -50.8501 HU 90 964 2 9 283
1961254N11329 1961 91 NA NA ESTHER 1961-09-14 18:00:00 TS 20.5000 -51.3000 90 965 hurdat_atl main 1509 1477 O_____________ hurdat_atl AL051961 20.5000 -51.3000 HU 90 965 2 9 286
1961254N11329 1961 91 NA NA ESTHER 1961-09-14 21:00:00 TS 20.6347 -51.7702 main 1466 1418 P_____________ AL051961 20.6347 -51.7702 HU 90 965 2 10 288
1961254N11329 1961 91 NA NA ESTHER 1961-09-15 00:00:00 TS 20.8000 -52.3000 90 hurdat_atl main 1418 1360 I_____________ hurdat_atl AL051961 20.8000 -52.3000 HU 90 966 2 11 288
1961254N11329 1961 91 NA NA ESTHER 1961-09-15 03:00:00 TS 20.9925 -52.9275 main 1360 1293 P_____________ AL051961 20.9925 -52.9275 HU 90 967 2 13 288
1961254N11329 1961 91 NA NA ESTHER 1961-09-15 06:00:00 TS 21.2000 -53.6000 90 968 hurdat_atl main 1293 1237 O_____________ hurdat_atl AL051961 21.2000 -53.6000 HU 90 968 2 13 289
1961254N11329 1961 91 NA NA ESTHER 1961-09-15 09:00:00 TS 21.4147 -54.2500 main 1237 1173 P_____________ AL051961 21.4147 -54.2500 HU 90 967 2 13 288
1961254N11329 1961 91 NA NA ESTHER 1961-09-15 12:00:00 TS 21.6000 -54.9000 90 966 hurdat_atl main 1173 1117 O_____________ hurdat_atl AL051961 21.6000 -54.9000 HU 90 966 2 12 284
1961254N11329 1961 91 NA NA ESTHER 1961-09-15 15:00:00 TS 21.7147 -55.5503 main 1107 1052 P_____________ AL051961 21.7147 -55.5503 HU 92 964 2 12 279
1961254N11329 1961 91 NA NA ESTHER 1961-09-15 18:00:00 TS 21.8000 -56.2000 95 hurdat_atl main 1052 998 I_____________ hurdat_atl AL051961 21.8000 -56.2000 HU 95 963 2 12 278
1961254N11329 1961 91 NA NA ESTHER 1961-09-15 21:00:00 TS 21.8922 -56.8427 main 998 935 P_____________ AL051961 21.8922 -56.8427 HU 95 961 2 12 279
1961254N11329 1961 91 NA NA ESTHER 1961-09-16 00:00:00 TS 22.0000 -57.5000 95 960 hurdat_atl main 935 875 O_____________ hurdat_atl AL051961 22.0000 -57.5000 HU 95 960 2 13 281
1961254N11329 1961 91 NA NA ESTHER 1961-09-16 03:00:00 TS 22.1348 -58.1926 main 875 823 P_____________ AL051961 22.1348 -58.1926 HU 100 957 3 13 283
1961254N11329 1961 91 NA NA ESTHER 1961-09-16 06:00:00 TS 22.3000 -58.9000 105 954 hurdat_atl main 823 775 O_____________ hurdat_atl AL051961 22.3000 -58.9000 HU 105 954 3 14 285
1961254N11329 1961 91 NA NA ESTHER 1961-09-16 09:00:00 TS 22.4774 -59.6152 main 775 731 P_____________ AL051961 22.4774 -59.6152 HU 110 951 3 14 287
1961254N11329 1961 91 NA NA ESTHER 1961-09-16 12:00:00 TS 22.7000 -60.3000 115 948 hurdat_atl main 731 708 O_____________ hurdat_atl AL051961 22.7000 -60.3000 HU 115 948 4 13 293
1961254N11329 1961 91 NA NA ESTHER 1961-09-16 15:00:00 TS 22.9921 -60.9150 main 709 691 P_____________ AL051961 22.9921 -60.9150 HU 122 941 4 13 299
1961254N11329 1961 91 NA NA ESTHER 1961-09-16 18:00:00 TS 23.3000 -61.5000 130 935 hurdat_atl main 693 681 O_____________ hurdat_atl AL051961 23.3000 -61.5000 HU 130 935 4 12 298
1961254N11329 1961 91 NA NA ESTHER 1961-09-16 21:00:00 TS 23.5723 -62.1001 main 685 674 P_____________ AL051961 23.5723 -62.1001 HU 132 932 4 12 294
1961254N11329 1961 91 NA NA ESTHER 1961-09-17 00:00:00 TS 23.8000 -62.7000 135 hurdat_atl main 674 663 I_____________ hurdat_atl AL051961 23.8000 -62.7000 HU 135 929 4 12 290
1961254N11329 1961 91 NA NA ESTHER 1961-09-17 03:00:00 TS 23.9648 -63.3003 main 669 656 P_____________ AL051961 23.9648 -63.3003 HU 137 926 5 11 285
1961254N11329 1961 91 NA NA ESTHER 1961-09-17 06:00:00 TS 24.1000 -63.9000 140 924 hurdat_atl main 661 656 O_____________ hurdat_atl AL051961 24.1000 -63.9000 HU 140 924 5 11 284
1961254N11329 1961 91 NA NA ESTHER 1961-09-17 09:00:00 TS 24.2349 -64.5078 main 658 658 P_____________ AL051961 24.2349 -64.5078 HU 140 926 5 11 285
1961254N11329 1961 91 NA NA ESTHER 1961-09-17 12:00:00 TS 24.4000 -65.1000 140 928 hurdat_atl main 672 672 O_____________ hurdat_atl AL051961 24.4000 -65.1000 HU 140 928 5 11 291
1961254N11329 1961 91 NA NA ESTHER 1961-09-17 15:00:00 TS 24.6349 -65.6799 main 693 693 P_____________ AL051961 24.6349 -65.6799 HU 140 923 5 11 297
1961254N11329 1961 91 NA NA ESTHER 1961-09-17 18:00:00 TS 24.9000 -66.2000 140 919 hurdat_atl main 702 698 O_____________ hurdat_atl AL051961 24.9000 -66.2000 HU 140 919 5 10 300
1961254N11329 1961 91 NA NA ESTHER 1961-09-17 21:00:00 TS 25.1346 -66.6155 main 705 705 P_____________ AL051961 25.1346 -66.6155 HU 137 923 5 9 305
1961254N11329 1961 91 NA NA ESTHER 1961-09-18 00:00:00 TS 25.4000 -67.0000 135 928 hurdat_atl main 717 713 O_____________ hurdat_atl AL051961 25.4000 -67.0000 HU 135 928 4 10 308
1961254N11329 1961 91 NA NA ESTHER 1961-09-18 03:00:00 TS 25.7275 -67.4501 main 728 728 P_____________ AL051961 25.7275 -67.4501 HU 130 930 4 11 311
1961254N11329 1961 91 NA NA ESTHER 1961-09-18 06:00:00 TS 26.1000 -67.9000 125 933 hurdat_atl main 754 748 O_____________ hurdat_atl AL051961 26.1000 -67.9000 HU 125 933 4 11 314
1961254N11329 1961 91 NA NA ESTHER 1961-09-18 09:00:00 TS 26.4773 -68.3079 main 760 754 P_____________ AL051961 26.4773 -68.3079 HU 122 934 4 11 318
1961254N11329 1961 91 NA NA ESTHER 1961-09-18 12:00:00 TS 26.9000 -68.7000 120 936 hurdat_atl main 771 771 O_____________ hurdat_atl AL051961 26.9000 -68.7000 HU 120 936 4 12 322
1961254N11329 1961 91 NA NA ESTHER 1961-09-18 15:00:00 TS 27.3775 -69.1077 main 797 792 P_____________ AL051961 27.3775 -69.1077 HU 115 939 4 12 325
1961254N11329 1961 91 NA NA ESTHER 1961-09-18 18:00:00 TS 27.9000 -69.5000 110 943 hurdat_atl main 827 827 O_____________ hurdat_atl AL051961 27.9000 -69.5000 HU 110 943 3 13 329
1961254N11329 1961 91 NA NA ESTHER 1961-09-18 21:00:00 TS 28.4498 -69.8504 main 863 863 P_____________ AL051961 28.4498 -69.8504 HU 107 946 3 13 331
1961254N11329 1961 91 NA NA ESTHER 1961-09-19 00:00:00 TS 29.0000 -70.2000 105 950 hurdat_atl main 869 802 O_____________ hurdat_atl AL051961 29.0000 -70.2000 HU 105 950 3 12 329
1961254N11329 1961 91 NA NA ESTHER 1961-09-19 03:00:00 TS 29.5149 -70.5854 main 802 735 P_____________ AL051961 29.5149 -70.5854 HU 105 949 3 12 325
1961254N11329 1961 91 NA NA ESTHER 1961-09-19 06:00:00 TS 30.0000 -71.0000 105 949 hurdat_atl main 735 676 O_____________ hurdat_atl AL051961 30.0000 -71.0000 HU 105 949 3 12 321
1961254N11329 1961 91 NA NA ESTHER 1961-09-19 09:00:00 TS 30.4500 -71.4504 main 669 602 P_____________ AL051961 30.4500 -71.4504 HU 105 946 3 12 319
1961254N11329 1961 91 NA NA ESTHER 1961-09-19 12:00:00 TS 30.9000 -71.9000 105 943 hurdat_atl main 602 536 O_____________ hurdat_atl AL051961 30.9000 -71.9000 HU 105 943 3 12 321
1961254N11329 1961 91 NA NA ESTHER 1961-09-19 15:00:00 TS 31.3925 -72.3374 main 536 470 P_____________ AL051961 31.3925 -72.3374 HU 105 946 3 12 326
1961254N11329 1961 91 NA NA ESTHER 1961-09-19 18:00:00 TS 31.9000 -72.7000 105 950 hurdat_atl main 470 419 O_____________ hurdat_atl AL051961 31.9000 -72.7000 HU 105 950 3 11 333
1961254N11329 1961 91 NA NA ESTHER 1961-09-19 21:00:00 TS 32.3998 -72.9528 main 412 369 P_____________ AL051961 32.3998 -72.9528 HU 105 951 3 11 341
1961254N11329 1961 91 NA NA ESTHER 1961-09-20 00:00:00 TS 32.9000 -73.1000 105 952 hurdat_atl main 369 330 O_____________ hurdat_atl AL051961 32.9000 -73.1000 HU 105 952 3 10 350
1961254N11329 1961 91 NA NA ESTHER 1961-09-20 03:00:00 TS 33.3924 -73.1729 main 330 296 P_____________ AL051961 33.3924 -73.1729 HU 105 954 3 10 355
1961254N11329 1961 91 NA NA ESTHER 1961-09-20 06:00:00 TS 33.9000 -73.2000 105 956 hurdat_atl main 296 253 O_____________ hurdat_atl AL051961 33.9000 -73.2000 HU 105 956 3 10 355
1961254N11329 1961 91 NA NA ESTHER 1961-09-20 09:00:00 TS 34.4275 -73.2794 main 253 218 P_____________ AL051961 34.4275 -73.2794 HU 105 952 3 11 356
1961254N11329 1961 91 NA NA ESTHER 1961-09-20 12:00:00 TS 35.0000 -73.3000 105 948 hurdat_atl main 218 206 O_____________ hurdat_atl AL051961 35.0000 -73.3000 HU 105 948 3 12 4
1961254N11329 1961 91 NA NA ESTHER 1961-09-20 15:00:00 TS 35.6200 -73.1877 main 208 206 P_____________ AL051961 35.6200 -73.1877 HU 102 950 3 13 11
1961254N11329 1961 91 NA NA ESTHER 1961-09-20 18:00:00 TS 36.3000 -73.0000 100 953 hurdat_atl main 231 231 O_____________ hurdat_atl AL051961 36.3000 -73.0000 HU 100 953 3 15 12
1961254N11329 1961 91 NA NA ESTHER 1961-09-20 21:00:00 TS 37.0425 -72.8075 main 248 223 P_____________ AL051961 37.0425 -72.8075 HU 95 957 2 15 12
1961254N11329 1961 91 NA NA ESTHER 1961-09-21 00:00:00 TS 37.8000 -72.6000 90 962 hurdat_atl main 225 197 O_____________ hurdat_atl AL051961 37.8000 -72.6000 HU 90 962 2 15 12
1961254N11329 1961 91 NA NA ESTHER 1961-09-21 03:00:00 TS 38.5223 -72.4216 main 197 175 P_____________ AL051961 38.5223 -72.4216 HU 87 964 2 14 13
1961254N11329 1961 91 NA NA ESTHER 1961-09-21 06:00:00 TS 39.2000 -72.2000 85 967 hurdat_atl main 180 126 O_____________ hurdat_atl AL051961 39.2000 -72.2000 HU 85 967 2 14 17
1961254N11329 1961 91 NA NA ESTHER 1961-09-21 09:00:00 TS 39.8750 -71.8807 main 116 100 P_____________ AL051961 39.8750 -71.8807 HU 80 969 1 13 24
1961254N11329 1961 91 NA NA ESTHER 1961-09-21 12:00:00 TS 40.4000 -71.5000 75 972 hurdat_atl main 102 81 O_____________ hurdat_atl AL051961 40.4000 -71.5000 HU 75 972 1 10 36
1961254N11329 1961 91 NA NA ESTHER 1961-09-21 15:00:00 TS 40.6900 -71.0994 main 84 77 P_____________ AL051961 40.6900 -71.0994 HU 75 1 7 57
1961254N11329 1961 91 NA NA ESTHER 1961-09-21 18:00:00 TS 40.8000 -70.7000 75 hurdat_atl main 77 77 O_____________ hurdat_atl AL051961 40.8000 -70.7000 HU 75 1 6 75
1961254N11329 1961 91 NA NA ESTHER 1961-09-21 21:00:00 TS 40.8372 -70.3571 main 81 81 P_____________ AL051961 40.8372 -70.3571 HU 75 1 5 90
1961254N11329 1961 91 NA NA ESTHER 1961-09-22 00:00:00 TS 40.8000 -70.0000 75 hurdat_atl main 95 95 O_____________ hurdat_atl AL051961 40.8000 -70.0000 HU 75 1 6 95
1961254N11329 1961 91 NA NA ESTHER 1961-09-22 03:00:00 TS 40.7872 -69.5882 main 105 105 P_____________ AL051961 40.7872 -69.5882 HU 72 1 7 98
1961254N11329 1961 91 NA NA ESTHER 1961-09-22 06:00:00 TS 40.7000 -69.1000 70 hurdat_atl main 134 134 O_____________ hurdat_atl AL051961 40.7000 -69.1000 HU 70 1 8 111
1961254N11329 1961 91 NA NA ESTHER 1961-09-22 09:00:00 TS 40.4871 -68.5450 main 183 183 P_____________ AL051961 40.4871 -68.5450 HU 67 1 10 119
1961254N11329 1961 91 NA NA ESTHER 1961-09-22 12:00:00 TS 40.2000 -67.9000 65 989 hurdat_atl main 242 242 O_____________ hurdat_atl AL051961 40.2000 -67.9000 HU 65 989 1 12 118
1961254N11329 1961 91 NA NA ESTHER 1961-09-22 15:00:00 TS 39.9228 -67.1503 main 308 308 P_____________ AL051961 39.9228 -67.1503 HU 62 990 0 13 118
1961254N11329 1961 91 NA NA ESTHER 1961-09-22 18:00:00 TS 39.6000 -66.4000 60 hurdat_atl main 382 382 I_____________ hurdat_atl AL051961 39.6000 -66.4000 TS 60 991 0 13 122
1961254N11329 1961 91 NA NA ESTHER 1961-09-22 21:00:00 TS 39.2225 -65.7172 main 457 457 P_____________ AL051961 39.2225 -65.7172 TS 60 992 0 12 131
1961254N11329 1961 91 NA NA ESTHER 1961-09-23 00:00:00 TS 38.8000 -65.2000 60 993 hurdat_atl main 518 518 O_____________ hurdat_atl AL051961 38.8000 -65.2000 TS 60 993 0 11 143
1961254N11329 1961 91 NA NA ESTHER 1961-09-23 03:00:00 TS 38.3570 -64.8954 main 567 567 P_____________ AL051961 38.3570 -64.8954 TS 57 0 10 161
1961254N11329 1961 91 NA NA ESTHER 1961-09-23 06:00:00 TS 37.9000 -64.8000 55 hurdat_atl main 612 612 O_____________ hurdat_atl AL051961 37.9000 -64.8000 TS 55 0 9 177
1961254N11329 1961 91 NA NA ESTHER 1961-09-23 09:00:00 TS 37.4424 -64.8329 main 652 647 P_____________ AL051961 37.4424 -64.8329 TS 52 0 9 190
1961254N11329 1961 91 NA NA ESTHER 1961-09-23 12:00:00 TS 37.0000 -65.0000 50 hurdat_atl main 676 676 O_____________ hurdat_atl AL051961 37.0000 -65.0000 TS 50 0 9 199
1961254N11329 1961 91 NA NA ESTHER 1961-09-23 15:00:00 TS 36.5550 -65.2204 main 701 701 P_____________ AL051961 36.5550 -65.2204 TS 47 0 9 207
1961254N11329 1961 91 NA NA ESTHER 1961-09-23 18:00:00 TS 36.2000 -65.5000 45 hurdat_atl main 724 724 O_____________ hurdat_atl AL051961 36.2000 -65.5000 TS 45 0 7 220
1961254N11329 1961 91 NA NA ESTHER 1961-09-23 21:00:00 TS 36.0125 -65.7920 main 730 722 P_____________ AL051961 36.0125 -65.7920 TS 45 0 6 238
1961254N11329 1961 91 NA NA ESTHER 1961-09-24 00:00:00 TS 35.9000 -66.1000 45 995 hurdat_atl main 728 724 O_____________ hurdat_atl AL051961 35.9000 -66.1000 TS 45 995 0 6 239
1961254N11329 1961 91 NA NA ESTHER 1961-09-24 03:00:00 TS 35.7199 -66.3927 main 736 733 P_____________ AL051961 35.7199 -66.3927 TS 45 0 6 238
1961254N11329 1961 91 NA NA ESTHER 1961-09-24 06:00:00 TS 35.6000 -66.7000 45 hurdat_atl main 736 727 O_____________ hurdat_atl AL051961 35.6000 -66.7000 TS 45 0 5 257
1961254N11329 1961 91 NA NA ESTHER 1961-09-24 09:00:00 TS 35.6047 -67.0200 main 727 704 P_____________ AL051961 35.6047 -67.0200 TS 45 0 6 280
1961254N11329 1961 91 NA NA ESTHER 1961-09-24 12:00:00 TS 35.7000 -67.4000 45 hurdat_atl main 704 682 O_____________ hurdat_atl AL051961 35.7000 -67.4000 TS 45 0 7 288
1961254N11329 1961 91 NA NA ESTHER 1961-09-24 15:00:00 TS 35.8350 -67.8773 main 679 638 P_____________ AL051961 35.8350 -67.8773 TS 47 0 9 290
1961254N11329 1961 91 NA NA ESTHER 1961-09-24 18:00:00 TS 36.0000 -68.4000 50 hurdat_atl main 638 593 O_____________ hurdat_atl AL051961 36.0000 -68.4000 TS 50 0 9 289
1961254N11329 1961 91 NA NA ESTHER 1961-09-24 21:00:00 TS 36.1275 -68.9155 main 593 549 P_____________ AL051961 36.1275 -68.9155 TS 50 0 9 290
1961254N11329 1961 91 NA NA ESTHER 1961-09-25 00:00:00 TS 36.3000 -69.4000 50 993 hurdat_atl main 549 508 O_____________ hurdat_atl AL051961 36.3000 -69.4000 TS 50 993 0 8 300
1961254N11329 1961 91 NA NA ESTHER 1961-09-25 03:00:00 TS 36.5473 -69.8303 main 508 457 P_____________ AL051961 36.5473 -69.8303 TS 50 992 0 9 313
1961254N11329 1961 91 NA NA ESTHER 1961-09-25 06:00:00 TS 36.9000 -70.2000 50 hurdat_atl main 457 411 I_____________ hurdat_atl AL051961 36.9000 -70.2000 TS 50 991 0 10 325
1961254N11329 1961 91 NA NA ESTHER 1961-09-25 09:00:00 TS 37.3700 -70.5593 main 397 351 P_____________ AL051961 37.3700 -70.5593 TS 50 990 0 11 335
1961254N11329 1961 91 NA NA ESTHER 1961-09-25 12:00:00 TS 37.9000 -70.8000 50 990 hurdat_atl main 351 304 O_____________ hurdat_atl AL051961 37.9000 -70.8000 TS 50 990 0 11 347
1961254N11329 1961 91 NA NA ESTHER 1961-09-25 15:00:00 TS 38.3923 -70.8679 main 304 261 P_____________ AL051961 38.3923 -70.8679 TS 50 990 0 10 1
1961254N11329 1961 91 NA NA ESTHER 1961-09-25 18:00:00 TS 38.9000 -70.8000 50 990 hurdat_atl main 261 224 O_____________ hurdat_atl AL051961 38.9000 -70.8000 TS 50 990 0 10 9
1961254N11329 1961 91 NA NA ESTHER 1961-09-25 21:00:00 TS 39.4049 -70.6672 main 224 167 P_____________ AL051961 39.4049 -70.6672 TS 50 0 11 12
1961254N11329 1961 91 NA NA ESTHER 1961-09-26 00:00:00 TS 40.0000 -70.5000 50 hurdat_atl main 167 103 O_____________ hurdat_atl AL051961 40.0000 -70.5000 TS 50 0 13 9
1961254N11329 1961 91 NA NA ESTHER 1961-09-26 03:00:00 TS 40.6639 -70.4194 main 92 34 P_____________ AL051961 40.6639 -70.4194 TS 50 0 16 7
1961254N11329 1961 91 NA NA ESTHER 1961-09-26 05:00:00 TS 41.3000 -70.3000 50 hurdat_atl main 34 13 O_____________ hurdat_atl AL051961 41.3000 -70.3000 L TS 50 0 21 9
1961254N11329 1961 91 NA NA ESTHER 1961-09-26 06:00:00 TS 41.7000 -70.2000 50 hurdat_atl main 0 0 O_____________ hurdat_atl AL051961 41.7000 -70.2000 L TS 50 0 27 7
1961254N11329 1961 91 NA NA ESTHER 1961-09-26 09:00:00 TS 43.0864 -70.0263 main 41 0 P_____________ AL051961 43.0864 -70.0263 TS 41 0 25 6
1961254N11329 1961 91 NA NA ESTHER 1961-09-26 11:00:00 TS 43.8000 -69.9000 35 1002 hurdat_atl main 0 0 O_____________ hurdat_atl AL051961 43.8000 -69.9000 L TS 35 1002 0 19 10
1961254N11329 1961 91 NA NA ESTHER 1961-09-26 12:00:00 TS 44.0000 -69.8000 35 1002 hurdat_atl main 0 0 O_____________ hurdat_atl AL051961 44.0000 -69.8000 TS 35 1002 0 23 10
1961254N11329 1961 91 NA NA ESTHER 1961-09-26 15:00:00 TS 45.3169 -69.5185 main 0 0 P_____________ AL051961 45.3169 -69.5185 TS 32 -1 30 8
1961254N11329 1961 91 NA NA ESTHER 1961-09-26 18:00:00 TS 47.0000 -69.2000 30 hurdat_atl main 0 0 O_____________ hurdat_atl AL051961 47.0000 -69.2000 TD 30 -1 29 10
1961254N11329 1961 91 NA NA ESTHER 1961-09-26 21:00:00 TS 48.1494 -68.8016 main 0 0 P_____________ AL051961 48.1494 -68.8016 TD 30 -1 21 17
1961254N11329 1961 91 NA NA ESTHER 1961-09-27 00:00:00 ET 49.0000 -68.3000 30 hurdat_atl main 11 0 O_____________ hurdat_atl AL051961 49.0000 -68.3000 EX 30 -4 16 27
1961254N11329 1961 91 NA NA ESTHER 1961-09-27 03:00:00 ET 49.5761 -67.6842 main 0 0 P_____________ AL051961 49.5761 -67.6842 EX 30 -4 13 40
1961254N11329 1961 91 NA NA ESTHER 1961-09-27 06:00:00 ET 50.0000 -67.0000 30 hurdat_atl main 0 O_____________ hurdat_atl AL051961 50.0000 -67.0000 EX 30 -4 12 46

About IBTrACS Database

This database is a web-friendly format of International Best Track Archive for Climate Stewardship (IBTrACS), a global best track data archive curated by NOAA dating back to 1842.

Updated: 2021-10-21